createdAt,value
2019-04-10T00:01:38.549Z,13.23
2019-04-10T00:06:40.306Z,11.27
2019-04-10T00:11:42.871Z,12.60
2019-04-10T00:16:44.878Z,12.83
2019-04-10T00:21:47.327Z,11.40
2019-04-10T00:26:49.845Z,9.73
2019-04-10T00:31:51.950Z,12.87
2019-04-10T00:36:53.738Z,10.00
2019-04-10T00:41:55.462Z,12.40
2019-04-10T00:46:57.277Z,12.23
2019-04-10T00:51:59.585Z,13.30
2019-04-10T00:57:01.427Z,11.17
2019-04-10T01:02:04.394Z,12.30
2019-04-10T01:07:06.552Z,11.93
2019-04-10T01:12:08.319Z,13.80
2019-04-10T01:17:10.090Z,11.13
2019-04-10T01:22:11.864Z,13.13
2019-04-10T01:27:13.921Z,12.77
2019-04-10T01:32:15.729Z,12.37
2019-04-10T01:37:18.631Z,12.00
2019-04-10T01:42:20.671Z,11.10
2019-04-10T01:47:23.375Z,11.07
2019-04-10T01:52:25.301Z,12.23
2019-04-10T01:57:27.015Z,15.23
2019-04-10T02:02:51.832Z,10.13
2019-04-10T02:08:05.232Z,15.97
2019-04-10T02:12:57.196Z,15.17
2019-04-10T02:17:59.135Z,17.47
2019-04-10T02:23:01.698Z,17.03
2019-04-10T02:28:03.550Z,12.57
2019-04-10T02:33:06.101Z,15.33
2019-04-10T02:38:25.941Z,14.63
2019-04-10T02:43:12.538Z,12.07
2019-04-10T02:48:15.181Z,11.23
2019-04-10T02:53:16.959Z,15.37
2019-04-10T02:58:19.236Z,11.43
2019-04-10T03:03:22.485Z,10.10
2019-04-10T03:08:41.265Z,13.00
2019-04-10T03:13:29.492Z,13.10
2019-04-10T03:18:32.597Z,13.43
2019-04-10T03:23:35.630Z,11.60
2019-04-10T03:28:37.559Z,12.60
2019-04-10T03:33:54.448Z,16.83
2019-04-10T03:39:00.225Z,15.40
2019-04-10T03:43:59.254Z,14.33
2019-04-10T03:49:01.205Z,17.27
2019-04-10T03:54:03.244Z,17.03
2019-04-10T03:59:06.174Z,18.20
2019-04-10T04:04:09.018Z,18.63
2019-04-10T04:09:12.939Z,16.10
2019-04-10T04:14:14.628Z,9.87
2019-04-10T04:19:16.362Z,9.73
2019-04-10T04:24:20.693Z,12.30
2019-04-10T04:29:22.640Z,9.37
2019-04-10T04:34:25.008Z,13.10
2019-04-10T04:39:28.413Z,10.33
2019-04-10T04:44:31.091Z,14.93
2019-04-10T04:49:33.624Z,7.83
2019-04-10T04:54:35.405Z,8.60
2019-04-10T04:59:37.193Z,9.23
2019-04-10T05:04:39.598Z,9.73
2019-04-10T05:09:42.234Z,10.23
2019-04-10T05:14:44.102Z,12.20
2019-04-10T05:19:46.796Z,11.70
2019-04-10T05:24:48.889Z,12.80
2019-04-10T05:29:50.722Z,10.40
2019-04-10T05:34:52.537Z,10.67
2019-04-10T05:39:55.318Z,9.67
2019-04-10T05:44:57.274Z,12.57
2019-04-10T05:49:59.775Z,9.70
2019-04-10T05:55:04.188Z,11.40
2019-04-10T06:00:14.755Z,10.77
2019-04-10T06:05:16.459Z,11.40
2019-04-10T06:10:19.531Z,15.50
2019-04-10T06:15:21.354Z,11.07
2019-04-10T06:20:26.334Z,11.73
2019-04-10T06:25:28.783Z,12.27
2019-04-10T06:30:32.292Z,9.60
2019-04-10T06:35:34.180Z,12.47
2019-04-10T06:40:35.958Z,11.80
2019-04-10T06:45:37.823Z,9.33
2019-04-10T06:50:39.476Z,10.20
2019-04-10T06:55:41.282Z,10.73
2019-04-10T07:00:45.649Z,9.73
2019-04-10T07:06:00.518Z,9.60
2019-04-10T07:10:57.832Z,8.77
2019-04-10T07:15:57.328Z,11.17
2019-04-10T07:21:00.737Z,7.60
2019-04-10T07:26:01.833Z,7.57
2019-04-10T07:31:07.231Z,7.20
2019-04-10T07:36:09.606Z,7.23
2019-04-10T07:41:16.887Z,8.57
2019-04-10T07:46:15.240Z,12.53
2019-04-10T07:51:17.110Z,6.70
2019-04-10T07:56:20.789Z,9.30
2019-04-10T08:01:22.411Z,6.77
2019-04-10T08:06:24.146Z,7.97
2019-04-10T08:11:26.144Z,5.80
2019-04-10T08:16:27.960Z,8.43
2019-04-10T08:21:29.725Z,8.00
2019-04-10T08:26:32.440Z,9.23
2019-04-10T08:31:34.419Z,9.17
2019-04-10T08:36:37.164Z,7.03
2019-04-10T08:41:39.177Z,11.97
2019-04-10T08:46:41.942Z,7.90
2019-04-10T08:51:43.770Z,4.10
2019-04-10T08:56:45.527Z,10.17
2019-04-10T09:01:47.324Z,7.20
2019-04-10T09:06:49.488Z,6.30
2019-04-10T09:11:51.585Z,7.43
2019-04-10T09:16:53.491Z,3.90
2019-04-10T09:21:55.543Z,8.27
2019-04-10T09:26:57.428Z,7.20
2019-04-10T09:31:59.199Z,7.03
2019-04-10T09:37:01.891Z,6.30
2019-04-10T09:42:03.772Z,8.93
2019-04-10T09:47:05.589Z,14.40
2019-04-10T09:52:07.322Z,4.83
2019-04-10T09:57:09.171Z,10.87
2019-04-10T10:02:11.223Z,7.90
2019-04-10T10:07:13.011Z,9.60
2019-04-10T10:12:15.759Z,10.53
2019-04-10T10:17:17.571Z,7.43
2019-04-10T10:22:19.313Z,8.93
2019-04-10T10:27:22.131Z,6.63
2019-04-10T10:32:24.742Z,10.53
2019-04-10T10:37:26.564Z,5.93
2019-04-10T10:42:29.675Z,5.97
2019-04-10T10:47:32.520Z,8.87
2019-04-10T10:52:35.369Z,6.53
2019-04-10T10:57:37.554Z,5.33
2019-04-10T11:02:39.374Z,7.63
2019-04-10T11:07:41.183Z,7.43
2019-04-10T11:12:44.095Z,8.73
2019-04-10T11:17:46.172Z,7.03
2019-04-10T11:22:49.504Z,5.13
2019-04-10T11:27:51.653Z,8.80
2019-04-10T11:32:54.793Z,4.53
2019-04-10T11:37:59.282Z,6.30
2019-04-10T11:43:03.521Z,8.07
2019-04-10T11:48:04.310Z,6.03
2019-04-10T11:53:06.965Z,7.80
2019-04-10T11:58:12.490Z,7.53
2019-04-10T12:03:15.225Z,8.07
2019-04-10T12:08:36.221Z,8.20
2019-04-10T12:13:20.326Z,6.87
2019-04-10T12:18:22.546Z,8.17
2019-04-10T12:23:25.128Z,12.70
2019-04-10T12:28:27.721Z,6.63
2019-04-10T12:33:29.756Z,9.73
2019-04-10T12:38:31.889Z,6.67
2019-04-10T12:43:34.701Z,7.33
2019-04-10T12:48:36.908Z,9.17
2019-04-10T12:53:38.605Z,8.13
2019-04-10T12:58:40.404Z,7.10
2019-04-10T13:03:43.142Z,6.87
2019-04-10T13:08:57.174Z,7.17
2019-04-10T13:13:48.537Z,9.60
2019-04-10T13:18:50.282Z,6.87
2019-04-10T13:23:53.020Z,7.70
2019-04-10T13:28:56.022Z,6.53
2019-04-10T13:33:57.880Z,11.40
2019-04-10T13:39:00.241Z,10.33
2019-04-10T13:44:02.377Z,12.50
2019-04-10T13:49:04.219Z,9.87
2019-04-10T13:54:06.260Z,8.13
2019-04-10T13:59:08.867Z,9.60
2019-04-10T14:04:11.189Z,9.90
2019-04-10T14:09:31.101Z,10.93
2019-04-10T14:14:20.391Z,8.70
2019-04-10T14:19:23.429Z,4.80
2019-04-10T14:24:26.228Z,7.87
2019-04-10T14:29:28.465Z,10.57
2019-04-10T14:34:30.408Z,7.83
2019-04-10T14:39:33.493Z,9.77
2019-04-10T14:44:35.369Z,6.87
2019-04-10T14:49:37.572Z,10.60
2019-04-10T14:54:39.765Z,9.70
2019-04-10T14:59:42.213Z,9.57
2019-04-10T15:04:44.112Z,8.70
2019-04-10T15:09:45.956Z,9.43
2019-04-10T15:14:47.914Z,8.00
2019-04-10T15:19:51.885Z,12.93
2019-04-10T15:24:53.890Z,9.07
2019-04-10T15:29:56.751Z,7.50
2019-04-10T15:34:58.670Z,10.03
2019-04-10T15:40:12.581Z,9.80
2019-04-10T15:45:05.079Z,15.50
2019-04-10T15:50:08.573Z,11.93
2019-04-10T15:55:11.158Z,10.30
2019-04-10T16:00:13.406Z,10.13
2019-04-10T16:05:15.457Z,8.23
2019-04-10T16:10:35.209Z,12.57
2019-04-10T16:15:39.391Z,7.20
2019-04-10T16:20:41.401Z,15.00
2019-04-10T16:25:46.789Z,11.63
2019-04-10T16:30:49.247Z,9.40
2019-04-10T16:35:51.006Z,11.90
2019-04-10T16:40:52.755Z,8.40
2019-04-10T16:45:55.170Z,8.97
2019-04-10T16:50:57.028Z,10.30
2019-04-10T16:55:59.083Z,12.23
2019-04-10T17:01:00.824Z,8.83
2019-04-10T17:06:03.886Z,8.90
2019-04-10T17:11:07.165Z,13.20
2019-04-10T17:16:09.296Z,9.67
2019-04-10T17:21:11.181Z,11.63
2019-04-10T17:26:13.056Z,13.03
2019-04-10T17:31:14.758Z,12.27
2019-04-10T17:36:16.913Z,10.73
2019-04-10T17:41:19.668Z,15.87
2019-04-10T17:46:22.744Z,15.40
2019-04-10T17:51:25.790Z,9.63
2019-04-10T17:56:28.362Z,11.17
2019-04-10T18:01:30.121Z,13.07
2019-04-10T18:06:31.851Z,9.73
2019-04-10T18:11:33.575Z,12.37
2019-04-10T18:16:36.159Z,9.70
2019-04-10T18:21:39.133Z,11.73
2019-04-10T18:26:41.633Z,12.53
2019-04-10T18:31:43.611Z,14.03
2019-04-10T18:36:48.534Z,11.40
2019-04-10T18:41:48.933Z,11.27
2019-04-10T18:46:50.793Z,13.17
2019-04-10T18:51:52.554Z,11.13
2019-04-10T18:56:55.594Z,12.70
2019-04-10T19:02:15.863Z,21.47
2019-04-10T19:07:17.962Z,15.77
2019-04-10T19:12:20.844Z,8.13
2019-04-10T19:17:22.643Z,11.43
2019-04-10T19:22:24.399Z,11.93
2019-04-10T19:27:26.687Z,12.60
2019-04-10T19:32:31.798Z,11.17
2019-04-10T19:37:33.689Z,9.23
2019-04-10T19:42:35.611Z,11.40
2019-04-10T19:47:38.738Z,14.23
2019-04-10T19:52:40.730Z,12.47
2019-04-10T19:57:43.375Z,16.00
2019-04-10T20:02:45.490Z,13.57
2019-04-10T20:07:47.278Z,14.00
2019-04-10T20:12:49.002Z,12.90
2019-04-10T20:17:50.813Z,12.93
2019-04-10T20:22:53.495Z,13.70
2019-04-10T20:27:56.328Z,14.83
2019-04-10T20:32:58.581Z,15.57
2019-04-10T20:38:01.056Z,16.87
2019-04-10T20:43:02.929Z,13.43
2019-04-10T20:48:04.751Z,15.47
2019-04-10T20:53:07.521Z,12.50
2019-04-10T20:58:09.346Z,17.43
2019-04-10T21:03:11.430Z,13.53
2019-04-10T21:08:13.760Z,15.67
2019-04-10T21:13:15.562Z,15.13
2019-04-10T21:18:17.429Z,15.33
2019-04-10T21:23:19.408Z,14.40
2019-04-10T21:28:21.157Z,18.53
2019-04-10T21:33:54.756Z,14.90
2019-04-10T21:38:56.719Z,18.07
2019-04-10T21:43:58.602Z,20.30
2019-04-10T21:49:01.517Z,15.73
2019-04-10T21:54:04.348Z,18.20
2019-04-10T21:59:06.336Z,16.63
2019-04-10T22:04:08.471Z,19.17
2019-04-10T22:09:32.096Z,18.10
2019-04-10T22:14:33.947Z,20.27
2019-04-10T22:19:38.006Z,18.63
2019-04-10T22:24:40.461Z,19.13
2019-04-10T22:29:42.746Z,18.30
2019-04-10T22:34:44.753Z,18.80
2019-04-10T22:39:46.755Z,18.30
2019-04-10T22:44:49.715Z,19.03
2019-04-10T22:49:51.815Z,17.53
2019-04-10T22:54:53.702Z,18.27
2019-04-10T22:59:55.531Z,16.70
2019-04-10T23:04:58.473Z,18.40
2019-04-10T23:10:00.392Z,18.40
2019-04-10T23:15:03.009Z,20.00
2019-04-10T23:20:05.020Z,21.07
2019-04-10T23:25:07.786Z,20.27
2019-04-10T23:30:14.857Z,21.10
2019-04-10T23:35:17.141Z,18.87
2019-04-10T23:40:19.006Z,17.57
2019-04-10T23:45:21.719Z,19.30
2019-04-10T23:50:23.974Z,19.17
2019-04-10T23:55:26.107Z,20.07
